Time;durP1;ratioP1;P1;durP2;ratioP2;P2;SDS_P1;SDS_P2;PMS_P1;PMS_P2;Temp;Humidity;BMP_temperature;BMP_pressure;BME280_temperature;BME280_humidity;BME280_pressure;Samples;Min_cycle;Max_cycle;Signal;HPM_P1;HPM_P2
2021/05/16 00:00:23;;;;;;;17.70;15.87;;;;;;;;;;4955955;29;20237;-80
2021/05/16 00:02:48;;;;;;;18.60;16.70;;;;;;;;;;4955664;29;20639;-80
2021/05/16 00:05:14;;;;;;;17.87;16.07;;;;;;;;;;4955875;29;20220;-80
2021/05/16 00:07:41;;;;;;;18.40;15.07;;;;;;;;;;4955580;29;20545;-80
2021/05/16 00:10:07;;;;;;;20.10;14.77;;;;;;;;;;4955496;29;20175;-80
2021/05/16 00:12:32;;;;;;;17.83;14.70;;;;;;;;;;4955730;29;20296;-80
2021/05/16 00:14:58;;;;;;;16.07;14.30;;;;;;;;;;4956365;28;20171;-80
2021/05/16 00:17:23;;;;;;;18.90;15.57;;;;;;;;;;4958834;29;20622;-80
2021/05/16 00:19:48;;;;;;;20.00;16.10;;;;;;;;;;4959811;29;20250;-80
2021/05/16 00:22:14;;;;;;;18.17;15.57;;;;;;;;;;4959490;29;20618;-80
2021/05/16 00:24:40;;;;;;;19.90;15.63;;;;;;;;;;4959484;29;20180;-80
2021/05/16 00:27:05;;;;;;;15.90;14.23;;;;;;;;;;4959482;29;20163;-80
2021/05/16 00:29:31;;;;;;;16.70;15.00;;;;;;;;;;4959139;29;20206;-80
2021/05/16 00:31:56;;;;;;;16.87;15.07;;;;;;;;;;4959385;29;20401;-80
2021/05/16 00:34:21;;;;;;;16.60;14.67;;;;;;;;;;4959740;29;20178;-80
2021/05/16 00:36:46;;;;;;;16.37;14.63;;;;;;;;;;4959949;29;20629;-80
2021/05/16 00:39:12;;;;;;;20.87;16.20;;;;;;;;;;4959522;29;20551;-80
2021/05/16 00:41:37;;;;;;;22.27;17.07;;;;;;;;;;4959084;29;20210;-80
2021/05/16 00:44:03;;;;;;;19.10;16.13;;;;;;;;;;4958867;29;20175;-80
2021/05/16 00:46:28;;;;;;;25.70;19.23;;;;;;;;;;4959399;29;20503;-80
2021/05/16 00:48:53;;;;;;;21.10;16.73;;;;;;;;;;4958780;29;20204;-80
2021/05/16 00:51:19;;;;;;;19.30;16.13;;;;;;;;;;4958824;29;20178;-80
2021/05/16 00:53:44;;;;;;;17.53;15.73;;;;;;;;;;4959395;29;20519;-80
2021/05/16 00:56:10;;;;;;;17.17;15.37;;;;;;;;;;4959108;29;20254;-80
2021/05/16 00:58:35;;;;;;;16.60;14.90;;;;;;;;;;4959447;29;20657;-80
2021/05/16 01:01:07;;;;;;;18.43;15.27;;;;;;;;;;4958244;29;20245;-80
2021/05/16 01:03:33;;;;;;;18.07;15.83;;;;;;;;;;4959143;29;20168;-80
2021/05/16 01:05:58;;;;;;;19.13;16.63;;;;;;;;;;4958819;29;20175;-80
2021/05/16 01:08:23;;;;;;;16.90;15.03;;;;;;;;;;4958759;29;20256;-80
2021/05/16 01:10:50;;;;;;;18.67;14.70;;;;;;;;;;4958429;29;20199;-80
2021/05/16 01:13:15;;;;;;;17.97;15.10;;;;;;;;;;4958378;29;20213;-80
2021/05/16 01:15:41;;;;;;;18.37;15.70;;;;;;;;;;4958372;29;20176;-80
2021/05/16 01:18:07;;;;;;;18.83;16.13;;;;;;;;;;4958609;29;20578;-80
2021/05/16 01:20:35;;;;;;;17.90;16.00;;;;;;;;;;4958491;29;20283;-80
2021/05/16 01:23:04;;;;;;;19.47;17.43;;;;;;;;;;4958459;29;20278;-80
2021/05/16 01:25:31;;;;;;;18.00;16.10;;;;;;;;;;4958180;29;20507;-80
2021/05/16 01:27:56;;;;;;;18.50;16.03;;;;;;;;;;4958191;28;20515;-80
2021/05/16 01:30:22;;;;;;;17.77;15.77;;;;;;;;;;4958353;29;20198;-80
2021/05/16 01:32:48;;;;;;;18.53;15.47;;;;;;;;;;4958287;29;20175;-80
2021/05/16 01:35:14;;;;;;;18.07;15.27;;;;;;;;;;4958038;29;20211;-80
2021/05/16 01:37:39;;;;;;;18.30;15.47;;;;;;;;;;4958327;29;20563;-80
2021/05/16 01:40:06;;;;;;;17.30;15.50;;;;;;;;;;4958092;29;20207;-80
2021/05/16 01:42:31;;;;;;;16.67;14.97;;;;;;;;;;4958836;29;20183;-80
2021/05/16 01:45:04;;;;;;;16.47;14.57;;;;;;;;;;4958165;29;20321;-80
2021/05/16 01:47:32;;;;;;;17.20;14.67;;;;;;;;;;4958387;29;20173;-80
2021/05/16 01:50:23;;;;;;;16.50;13.90;;;;;;;;;;4958225;29;20521;-80
2021/05/16 01:52:49;;;;;;;17.07;14.53;;;;;;;;;;4954050;29;20187;-80
2021/05/16 01:55:16;;;;;;;18.57;14.77;;;;;;;;;;4957974;29;20168;-80
2021/05/16 01:57:41;;;;;;;16.73;14.40;;;;;;;;;;4958113;29;20171;-80
2021/05/16 02:00:09;;;;;;;17.00;14.63;;;;;;;;;;4957137;29;20313;-80
2021/05/16 02:02:35;;;;;;;18.77;14.80;;;;;;;;;;4958033;29;20230;-80
2021/05/16 02:05:00;;;;;;;18.10;14.40;;;;;;;;;;4957480;29;20175;-80
2021/05/16 02:07:26;;;;;;;17.83;14.43;;;;;;;;;;4957898;29;20530;-80
2021/05/16 02:09:51;;;;;;;16.43;14.60;;;;;;;;;;4957972;29;20210;-80
2021/05/16 02:12:17;;;;;;;17.10;15.13;;;;;;;;;;4957621;29;20186;-80
2021/05/16 02:14:44;;;;;;;22.43;17.13;;;;;;;;;;4957585;29;20179;-80
2021/05/16 02:17:10;;;;;;;19.20;17.20;;;;;;;;;;4957229;29;20527;-80
2021/05/16 02:19:36;;;;;;;20.67;17.67;;;;;;;;;;4957091;29;20190;-80
2021/05/16 02:22:01;;;;;;;19.43;16.33;;;;;;;;;;4957454;29;20179;-81
2021/05/16 02:24:26;;;;;;;18.10;16.20;;;;;;;;;;4957194;29;20554;-81
2021/05/16 02:26:54;;;;;;;17.83;16.03;;;;;;;;;;4957155;29;20172;-81
2021/05/16 02:29:19;;;;;;;20.80;16.93;;;;;;;;;;4957011;29;20197;-81
2021/05/16 02:31:44;;;;;;;19.23;17.23;;;;;;;;;;4957533;29;20183;-81
2021/05/16 02:34:10;;;;;;;18.67;16.67;;;;;;;;;;4957436;29;20673;-81
2021/05/16 02:36:35;;;;;;;18.50;16.57;;;;;;;;;;4957231;29;20167;-81
2021/05/16 02:39:00;;;;;;;18.63;16.10;;;;;;;;;;4956541;28;20554;-81
2021/05/16 02:41:26;;;;;;;20.77;18.37;;;;;;;;;;4956711;29;20253;-81
2021/05/16 02:43:51;;;;;;;35.03;31.37;;;;;;;;;;4957031;29;20174;-81
2021/05/16 02:46:17;;;;;;;36.40;32.70;;;;;;;;;;4957287;29;20610;-81
2021/05/16 02:48:42;;;;;;;28.03;25.00;;;;;;;;;;4956865;29;20171;-81
2021/05/16 02:51:07;;;;;;;21.87;19.50;;;;;;;;;;4956928;29;20179;-81
2021/05/16 02:53:33;;;;;;;19.10;17.17;;;;;;;;;;4956596;29;20262;-81
2021/05/16 02:55:59;;;;;;;18.70;16.70;;;;;;;;;;4956867;29;20182;-81
2021/05/16 02:58:24;;;;;;;19.60;17.33;;;;;;;;;;4956727;29;20179;-81
2021/05/16 03:00:49;;;;;;;18.77;16.63;;;;;;;;;;4956528;29;20293;-81
2021/05/16 04:31:40;;;;;;;18.90;16.80;;;;;;;;;;5069814;27;20665;-81
2021/05/16 04:34:06;;;;;;;16.80;15.03;;;;;;;;;;5070998;28;20182;-81
2021/05/16 04:36:31;;;;;;;17.50;15.60;;;;;;;;;;5070981;28;20164;-81
2021/05/16 04:38:56;;;;;;;17.63;15.93;;;;;;;;;;5070701;28;20607;-82
2021/05/16 04:41:22;;;;;;;18.80;15.80;;;;;;;;;;5071118;28;20174;-82
2021/05/16 04:43:47;;;;;;;16.27;14.60;;;;;;;;;;5070782;28;20182;-81
2021/05/16 04:46:13;;;;;;;20.33;15.87;;;;;;;;;;5071070;28;20266;-81
2021/05/16 04:48:38;;;;;;;17.23;15.43;;;;;;;;;;5071018;28;20195;-81
2021/05/16 04:51:04;;;;;;;16.93;15.00;;;;;;;;;;5070895;28;20206;-81
2021/05/16 04:53:32;;;;;;;16.37;14.77;;;;;;;;;;5070689;28;20526;-81
2021/05/16 04:55:58;;;;;;;15.90;14.33;;;;;;;;;;5070854;28;20167;-81
2021/05/16 04:58:23;;;;;;;16.37;13.60;;;;;;;;;;5070527;28;20163;-82
2021/05/16 05:00:49;;;;;;;14.53;13.23;;;;;;;;;;5070674;28;20191;-82
2021/05/16 05:03:15;;;;;;;14.67;13.13;;;;;;;;;;5070467;28;20258;-82
2021/05/16 05:05:41;;;;;;;14.90;13.50;;;;;;;;;;5070089;28;20168;-82
2021/05/16 05:08:06;;;;;;;14.93;13.43;;;;;;;;;;5070602;28;20171;-82
2021/05/16 05:10:31;;;;;;;14.30;12.90;;;;;;;;;;5070503;28;20164;-82
2021/05/16 05:12:57;;;;;;;14.48;13.13;;;;;;;;;;5070268;28;20163;-82
2021/05/16 05:15:22;;;;;;;13.40;12.27;;;;;;;;;;5070456;28;20167;-82
2021/05/16 05:17:48;;;;;;;13.50;12.20;;;;;;;;;;5070168;28;20172;-82
2021/05/16 05:20:13;;;;;;;13.73;12.52;;;;;;;;;;5069833;28;20221;-82
2021/05/16 05:22:38;;;;;;;13.45;12.35;;;;;;;;;;5069658;28;20163;-82
2021/05/16 05:25:04;;;;;;;13.95;12.65;;;;;;;;;;5070207;28;20244;-82
2021/05/16 05:27:29;;;;;;;13.35;12.10;;;;;;;;;;5069484;28;20178;-82
2021/05/16 05:29:55;;;;;;;13.73;12.43;;;;;;;;;;5069519;28;20227;-82
2021/05/16 05:32:20;;;;;;;13.77;12.40;;;;;;;;;;5059088;28;20171;-82
2021/05/16 05:34:46;;;;;;;13.18;11.88;;;;;;;;;;5057067;28;20179;-82
2021/05/16 05:37:11;;;;;;;11.75;10.75;;;;;;;;;;5056587;28;20175;-83
2021/05/16 05:39:36;;;;;;;11.63;10.65;;;;;;;;;;5056418;28;20203;-83
2021/05/16 05:42:02;;;;;;;11.05;10.10;;;;;;;;;;5056442;28;20168;-83
2021/05/16 05:44:27;;;;;;;11.70;10.63;;;;;;;;;;5056887;28;20164;-83
2021/05/16 05:46:52;;;;;;;11.63;10.43;;;;;;;;;;5056474;28;20549;-83
2021/05/16 05:49:18;;;;;;;11.45;10.40;;;;;;;;;;5056116;28;20215;-83
2021/05/16 05:51:43;;;;;;;10.68;9.77;;;;;;;;;;5056082;28;20196;-81
2021/05/16 05:54:08;;;;;;;10.93;10.02;;;;;;;;;;5056770;28;20207;-81
2021/05/16 05:56:37;;;;;;;10.85;9.75;;;;;;;;;;5056421;28;20587;-81
2021/05/16 05:59:03;;;;;;;9.38;8.48;;;;;;;;;;5055973;28;20168;-81
2021/05/16 06:01:28;;;;;;;9.07;8.25;;;;;;;;;;5056083;28;20172;-81
2021/05/16 06:03:53;;;;;;;8.48;7.78;;;;;;;;;;5056091;28;20183;-80
2021/05/16 06:06:19;;;;;;;7.85;7.15;;;;;;;;;;5056571;28;20175;-81
2021/05/16 06:08:44;;;;;;;7.47;6.85;;;;;;;;;;5055635;28;20194;-81
2021/05/16 06:11:09;;;;;;;7.35;6.75;;;;;;;;;;5055788;28;20225;-81
2021/05/16 06:13:35;;;;;;;6.28;5.78;;;;;;;;;;5055893;28;20251;-81
2021/05/16 06:16:00;;;;;;;6.78;6.10;;;;;;;;;;5055846;28;20171;-81
2021/05/16 06:18:27;;;;;;;6.20;5.68;;;;;;;;;;5055660;28;20176;-81
2021/05/16 06:20:53;;;;;;;6.38;5.88;;;;;;;;;;5055967;28;20183;-81
2021/05/16 06:23:19;;;;;;;6.60;6.00;;;;;;;;;;5055427;28;20228;-80
2021/05/16 06:25:45;;;;;;;6.18;5.68;;;;;;;;;;5054992;28;20267;-81
2021/05/16 06:28:10;;;;;;;6.07;5.47;;;;;;;;;;5055483;28;20281;-82
2021/05/16 06:30:35;;;;;;;5.70;5.20;;;;;;;;;;5055048;28;20691;-83
2021/05/16 06:33:01;;;;;;;5.68;5.28;;;;;;;;;;5055757;28;20168;-83
2021/05/16 06:35:26;;;;;;;5.50;5.10;;;;;;;;;;5055154;28;20168;-83
2021/05/16 06:37:51;;;;;;;5.75;5.25;;;;;;;;;;5055410;28;20194;-83
2021/05/16 06:40:17;;;;;;;5.25;4.85;;;;;;;;;;5055319;28;20180;-83
2021/05/16 06:42:43;;;;;;;5.47;4.97;;;;;;;;;;5054069;28;20194;-83
2021/05/16 06:45:09;;;;;;;5.30;4.90;;;;;;;;;;5055373;28;20171;-81
2021/05/16 06:47:34;;;;;;;4.65;4.35;;;;;;;;;;5055165;28;20250;-81
2021/05/16 06:50:00;;;;;;;4.75;4.45;;;;;;;;;;5055077;28;20648;-81
2021/05/16 06:52:25;;;;;;;5.28;4.88;;;;;;;;;;5055093;28;20531;-81
2021/05/16 06:54:51;;;;;;;5.03;4.70;;;;;;;;;;5055030;28;20194;-81
2021/05/16 06:57:16;;;;;;;5.25;4.85;;;;;;;;;;5054809;28;20160;-81
2021/05/16 06:59:42;;;;;;;5.40;5.00;;;;;;;;;;5054636;28;20168;-81
2021/05/16 07:02:07;;;;;;;5.88;5.30;;;;;;;;;;5054550;28;20179;-81
2021/05/16 07:04:33;;;;;;;5.50;5.10;;;;;;;;;;5055062;28;20176;-81
2021/05/16 07:06:58;;;;;;;6.80;6.20;;;;;;;;;;5055325;28;20168;-81
2021/05/16 07:09:24;;;;;;;6.57;5.93;;;;;;;;;;5054648;28;20253;-81
2021/05/16 07:11:49;;;;;;;6.20;5.68;;;;;;;;;;5054794;28;20168;-83
2021/05/16 07:14:14;;;;;;;6.47;5.97;;;;;;;;;;5054644;28;20246;-83
2021/05/16 07:16:40;;;;;;;6.00;5.50;;;;;;;;;;5055177;28;20167;-83
2021/05/16 07:19:05;;;;;;;7.35;5.88;;;;;;;;;;5054631;28;20164;-83
2021/05/16 07:21:30;;;;;;;5.20;4.80;;;;;;;;;;5054348;28;20193;-83
2021/05/16 07:23:56;;;;;;;5.25;4.85;;;;;;;;;;5054295;28;20176;-83
2021/05/16 07:26:21;;;;;;;5.18;4.78;;;;;;;;;;5054163;28;20267;-82
2021/05/16 07:28:47;;;;;;;5.30;4.90;;;;;;;;;;5054898;28;20175;-83
2021/05/16 07:31:12;;;;;;;5.50;5.10;;;;;;;;;;5054119;28;20234;-82
2021/05/16 07:33:38;;;;;;;5.13;4.72;;;;;;;;;;5054646;28;20247;-82
2021/05/16 07:36:04;;;;;;;4.78;4.45;;;;;;;;;;5053919;28;20187;-82
2021/05/16 07:38:29;;;;;;;7.38;4.20;;;;;;;;;;5054314;28;20172;-82
2021/05/16 07:40:55;;;;;;;4.60;4.30;;;;;;;;;;5054561;28;20179;-82
2021/05/16 07:43:20;;;;;;;4.80;4.40;;;;;;;;;;5054265;28;20187;-81
2021/05/16 07:45:45;;;;;;;4.43;4.10;;;;;;;;;;5054228;28;20167;-84
2021/05/16 07:48:11;;;;;;;3.63;3.42;;;;;;;;;;5054125;28;20258;-83
2021/05/16 07:50:36;;;;;;;4.28;3.97;;;;;;;;;;5053842;28;20221;-83
2021/05/16 07:53:02;;;;;;;3.83;3.53;;;;;;;;;;5053934;28;20207;-83
2021/05/16 07:55:27;;;;;;;4.30;4.00;;;;;;;;;;5051425;28;20179;-83
2021/05/16 07:57:53;;;;;;;3.70;3.50;;;;;;;;;;5053079;28;20274;-83
2021/05/16 08:00:18;;;;;;;3.72;3.53;;;;;;;;;;5053573;28;20195;-82
2021/05/16 08:02:44;;;;;;;3.88;3.60;;;;;;;;;;5054388;28;20210;-83
2021/05/16 08:05:13;;;;;;;3.97;3.67;;;;;;;;;;5053462;28;20522;-82
2021/05/16 08:07:38;;;;;;;4.28;3.97;;;;;;;;;;5054107;28;20192;-82
2021/05/16 08:10:05;;;;;;;4.03;3.75;;;;;;;;;;5052618;28;20235;-81
2021/05/16 08:12:30;;;;;;;4.45;3.55;;;;;;;;;;5051316;28;20195;-82
2021/05/16 08:14:55;;;;;;;4.22;3.92;;;;;;;;;;5041735;28;20172;-82
2021/05/16 08:17:21;;;;;;;4.03;3.40;;;;;;;;;;5052652;28;20179;-82
2021/05/16 08:19:47;;;;;;;3.97;3.60;;;;;;;;;;5041757;28;20180;-81
2021/05/16 08:22:12;;;;;;;3.70;3.40;;;;;;;;;;5046677;28;20206;-81
2021/05/16 08:24:38;;;;;;;4.35;3.95;;;;;;;;;;5043565;28;20257;-81
2021/05/16 08:27:06;;;;;;;3.80;3.58;;;;;;;;;;5040718;28;20651;-81
2021/05/16 08:29:35;;;;;;;3.90;3.60;;;;;;;;;;5042519;28;20196;-81
2021/05/16 08:32:00;;;;;;;4.22;3.83;;;;;;;;;;5040981;28;20608;-81
2021/05/16 08:34:26;;;;;;;4.40;4.00;;;;;;;;;;5033901;28;20169;-81
2021/05/16 08:36:51;;;;;;;4.15;3.75;;;;;;;;;;5049172;28;20266;-81
2021/05/16 08:39:16;;;;;;;4.32;3.90;;;;;;;;;;5053420;28;20615;-81
2021/05/16 08:41:42;;;;;;;3.83;3.63;;;;;;;;;;5053636;28;20269;-81
2021/05/16 08:44:07;;;;;;;4.05;3.83;;;;;;;;;;5052344;28;20255;-81
2021/05/16 08:46:32;;;;;;;4.95;4.25;;;;;;;;;;5051152;28;20616;-81
2021/05/16 08:48:58;;;;;;;4.57;4.18;;;;;;;;;;5051292;28;20164;-82
2021/05/16 08:51:23;;;;;;;4.57;4.28;;;;;;;;;;5051405;28;20220;-81
2021/05/16 08:53:49;;;;;;;5.50;4.50;;;;;;;;;;5051876;28;20217;-82
2021/05/16 08:56:15;;;;;;;4.47;4.18;;;;;;;;;;5051393;28;20183;-81
2021/05/16 08:58:40;;;;;;;4.75;4.45;;;;;;;;;;5051292;28;20801;-81
2021/05/16 09:01:24;;;;;;;4.68;4.28;;;;;;;;;;5031797;28;20177;-81
2021/05/16 09:03:50;;;;;;;4.60;4.30;;;;;;;;;;5031418;28;20514;-83
2021/05/16 09:06:15;;;;;;;4.35;4.05;;;;;;;;;;5033979;28;20169;-82
2021/05/16 09:08:41;;;;;;;3.75;3.45;;;;;;;;;;5036161;28;20244;-81
2021/05/16 09:11:06;;;;;;;3.80;3.60;;;;;;;;;;5036683;28;20323;-82
2021/05/16 09:13:31;;;;;;;4.28;3.95;;;;;;;;;;5037053;28;20628;-82
2021/05/16 09:15:59;;;;;;;4.40;4.10;;;;;;;;;;5036969;28;20263;-82
2021/05/16 09:18:36;;;;;;;4.57;4.20;;;;;;;;;;5036539;28;20180;-82
2021/05/16 09:21:23;;;;;;;4.50;4.20;;;;;;;;;;5036732;28;20242;-83
2021/05/16 09:24:04;;;;;;;4.88;4.40;;;;;;;;;;5039305;28;20168;-82
2021/05/16 09:26:30;;;;;;;4.20;3.90;;;;;;;;;;5055564;28;20258;-82
2021/05/16 09:28:56;;;;;;;3.88;3.67;;;;;;;;;;5055775;28;20179;-84
2021/05/16 09:31:34;;;;;;;4.20;3.90;;;;;;;;;;5046129;28;20236;-83
2021/05/16 09:34:00;;;;;;;4.07;3.75;;;;;;;;;;5049291;28;20173;-83
2021/05/16 09:36:32;;;;;;;4.22;3.92;;;;;;;;;;5055312;28;20171;-83
2021/05/16 09:39:10;;;;;;;4.50;4.10;;;;;;;;;;5056062;28;20210;-82
2021/05/16 09:41:35;;;;;;;4.53;4.22;;;;;;;;;;5059470;28;20186;-83
2021/05/16 09:44:00;;;;;;;6.22;3.70;;;;;;;;;;5057383;28;20164;-83
2021/05/16 09:46:26;;;;;;;3.97;3.67;;;;;;;;;;5056413;28;20182;-83
2021/05/16 09:48:51;;;;;;;3.60;3.30;;;;;;;;;;5048224;28;20178;-84
2021/05/16 09:51:21;;;;;;;3.03;2.83;;;;;;;;;;5058109;28;20208;-84
2021/05/16 09:53:53;;;;;;;3.65;3.45;;;;;;;;;;5052322;28;20263;-83
2021/05/16 09:56:20;;;;;;;3.95;3.65;;;;;;;;;;5038887;28;20181;-83
2021/05/16 09:58:46;;;;;;;4.40;4.00;;;;;;;;;;5062785;28;20168;-83
2021/05/16 10:01:13;;;;;;;4.50;4.20;;;;;;;;;;5056311;28;20172;-83
2021/05/16 10:03:39;;;;;;;3.95;3.70;;;;;;;;;;5055681;28;20184;-83
2021/05/16 10:06:04;;;;;;;4.40;4.10;;;;;;;;;;5039786;28;20186;-83
2021/05/16 10:08:30;;;;;;;3.75;3.45;;;;;;;;;;5039526;28;20614;-84
2021/05/16 10:10:56;;;;;;;6.05;4.43;;;;;;;;;;5045272;28;20206;-84
2021/05/16 10:13:22;;;;;;;4.53;4.22;;;;;;;;;;5042258;28;20192;-82
2021/05/16 10:15:48;;;;;;;4.22;3.92;;;;;;;;;;5053402;28;20196;-83
2021/05/16 10:18:14;;;;;;;4.95;4.53;;;;;;;;;;5059561;28;20309;-83
2021/05/16 10:20:41;;;;;;;5.05;4.10;;;;;;;;;;5055616;28;20259;-83
2021/05/16 10:23:07;;;;;;;4.55;4.25;;;;;;;;;;5055659;28;20171;-83
2021/05/16 10:25:43;;;;;;;6.32;4.25;;;;;;;;;;5055318;28;20172;-82
2021/05/16 10:28:11;;;;;;;4.32;3.92;;;;;;;;;;5054170;28;20262;-82
2021/05/16 10:30:36;;;;;;;4.90;4.40;;;;;;;;;;5055123;28;20629;-83
2021/05/16 10:33:02;;;;;;;4.30;4.00;;;;;;;;;;5054996;28;20174;-83
2021/05/16 10:35:46;;;;;;;4.57;4.18;;;;;;;;;;5051541;28;20194;-83
2021/05/16 10:38:31;;;;;;;5.00;4.60;;;;;;;;;;5054980;28;20163;-83
2021/05/16 10:41:12;;;;;;;5.07;4.57;;;;;;;;;;5055365;28;20168;-83
2021/05/16 10:43:38;;;;;;;4.65;4.18;;;;;;;;;;5055264;28;20168;-83
2021/05/16 10:46:03;;;;;;;4.80;4.40;;;;;;;;;;5055080;28;20229;-82
2021/05/16 10:48:31;;;;;;;4.47;3.97;;;;;;;;;;5058336;28;20228;-82
2021/05/16 10:50:58;;;;;;;4.00;3.70;;;;;;;;;;5062291;28;20213;-82
2021/05/16 10:53:30;;;;;;;4.30;3.90;;;;;;;;;;5055200;28;20522;-82
2021/05/16 10:56:01;;;;;;;4.53;4.17;;;;;;;;;;5054851;28;20599;-83
2021/05/16 10:58:35;;;;;;;5.20;4.70;;;;;;;;;;5055009;28;20168;-83
2021/05/16 11:01:11;;;;;;;5.23;4.10;;;;;;;;;;5054905;28;20172;-82
2021/05/16 11:03:43;;;;;;;3.73;3.43;;;;;;;;;;5054764;28;20167;-84
2021/05/16 11:06:08;;;;;;;5.07;3.47;;;;;;;;;;5054719;28;20207;-82
2021/05/16 11:08:33;;;;;;;4.30;3.50;;;;;;;;;;5054854;28;20179;-82
2021/05/16 11:10:59;;;;;;;4.17;3.50;;;;;;;;;;5054318;28;20240;-82
2021/05/16 11:13:30;;;;;;;3.70;3.30;;;;;;;;;;5054562;28;20715;-83
2021/05/16 11:15:57;;;;;;;4.13;3.63;;;;;;;;;;5053337;28;20535;-83
2021/05/16 11:18:23;;;;;;;3.40;3.03;;;;;;;;;;5054810;28;20622;-83
2021/05/16 11:21:01;;;;;;;3.03;2.83;;;;;;;;;;5054045;28;20260;-82
2021/05/16 11:23:37;;;;;;;3.40;3.10;;;;;;;;;;5054222;28;20177;-82
2021/05/16 11:26:02;;;;;;;3.30;3.10;;;;;;;;;;5053854;28;20616;-82
2021/05/16 11:28:29;;;;;;;3.73;3.43;;;;;;;;;;5054112;28;20175;-83
2021/05/16 11:30:56;;;;;;;3.20;2.90;;;;;;;;;;5050992;28;20254;-83
2021/05/16 11:33:31;;;;;;;3.23;2.80;;;;;;;;;;5052276;28;20188;-83
2021/05/16 11:35:57;;;;;;;4.00;3.00;;;;;;;;;;5052256;28;20182;-83
2021/05/16 11:38:25;;;;;;;3.23;3.03;;;;;;;;;;5051707;28;20282;-82
2021/05/16 11:40:51;;;;;;;4.70;3.53;;;;;;;;;;5051101;28;20198;-83
2021/05/16 11:43:16;;;;;;;6.07;4.47;;;;;;;;;;5052041;28;20629;-82
2021/05/16 11:45:43;;;;;;;6.30;4.40;;;;;;;;;;5051742;28;20225;-83
2021/05/16 11:48:23;;;;;;;7.17;4.37;;;;;;;;;;5051695;28;20180;-82
2021/05/16 11:50:49;;;;;;;6.27;4.47;;;;;;;;;;5053955;28;20199;-82
2021/05/16 11:53:20;;;;;;;5.07;4.20;;;;;;;;;;5053488;28;20251;-83
2021/05/16 11:55:46;;;;;;;4.77;3.80;;;;;;;;;;5054193;28;20191;-83
2021/05/16 11:58:12;;;;;;;4.10;3.70;;;;;;;;;;5053249;28;20199;-82
2021/05/16 12:00:37;;;;;;;3.80;3.50;;;;;;;;;;5050026;28;20184;-82
2021/05/16 12:03:07;;;;;;;3.60;3.30;;;;;;;;;;5040382;28;20598;-82
2021/05/16 12:05:32;;;;;;;4.33;3.50;;;;;;;;;;5051131;28;20186;-82
2021/05/16 12:07:57;;;;;;;3.33;3.13;;;;;;;;;;5052246;28;20168;-82
2021/05/16 12:10:23;;;;;;;3.73;3.43;;;;;;;;;;5053711;28;20198;-82
2021/05/16 12:12:48;;;;;;;3.23;3.03;;;;;;;;;;5053661;28;20168;-82
2021/05/16 12:15:22;;;;;;;3.23;2.93;;;;;;;;;;5053974;28;20262;-81
2021/05/16 12:17:47;;;;;;;3.10;2.80;;;;;;;;;;5053912;28;20163;-81
2021/05/16 12:20:21;;;;;;;3.20;2.90;;;;;;;;;;5053291;28;20268;-81
2021/05/16 12:22:47;;;;;;;2.93;2.73;;;;;;;;;;5053570;28;20661;-81
2021/05/16 12:25:12;;;;;;;3.13;2.93;;;;;;;;;;5053294;28;20168;-82
2021/05/16 12:27:38;;;;;;;3.33;3.03;;;;;;;;;;5053447;28;20544;-83
2021/05/16 12:30:07;;;;;;;3.73;2.90;;;;;;;;;;5053518;28;20321;-82
2021/05/16 12:32:32;;;;;;;3.03;2.73;;;;;;;;;;5053126;28;20175;-83
2021/05/16 12:34:58;;;;;;;3.23;2.90;;;;;;;;;;5053249;28;20531;-83
2021/05/16 12:37:24;;;;;;;3.77;3.47;;;;;;;;;;5053254;28;20256;-83
2021/05/16 12:39:52;;;;;;;3.53;3.23;;;;;;;;;;5053441;28;20178;-83
2021/05/16 12:42:28;;;;;;;3.70;3.13;;;;;;;;;;5055764;28;20178;-83
2021/05/16 12:44:55;;;;;;;3.17;2.80;;;;;;;;;;5057104;28;20542;-83
2021/05/16 12:47:24;;;;;;;3.67;3.00;;;;;;;;;;5057105;28;20194;-83
2021/05/16 12:50:00;;;;;;;3.50;3.20;;;;;;;;;;5068393;28;20663;-83
2021/05/16 12:52:26;;;;;;;2.93;2.63;;;;;;;;;;5050915;28;20626;-82
2021/05/16 12:54:51;;;;;;;3.30;3.00;;;;;;;;;;5050389;28;20187;-83
2021/05/16 12:57:26;;;;;;;2.93;2.70;;;;;;;;;;5057000;28;20168;-83
2021/05/16 12:59:51;;;;;;;3.93;3.10;;;;;;;;;;5056794;28;20600;-82
2021/05/16 13:02:17;;;;;;;3.20;3.00;;;;;;;;;;5056644;28;20267;-82
2021/05/16 13:04:46;;;;;;;3.53;3.23;;;;;;;;;;5057025;28;20203;-82
2021/05/16 13:07:12;;;;;;;4.67;3.27;;;;;;;;;;5053730;28;20184;-83
2021/05/16 13:09:38;;;;;;;3.40;3.20;;;;;;;;;;5048452;28;20204;-82
2021/05/16 13:12:03;;;;;;;3.70;3.40;;;;;;;;;;5054395;28;20298;-83
2021/05/16 13:14:32;;;;;;;3.73;3.37;;;;;;;;;;5053548;28;20183;-83
2021/05/16 13:17:08;;;;;;;4.07;3.70;;;;;;;;;;5056903;28;20187;-83
2021/05/16 13:19:37;;;;;;;3.90;3.60;;;;;;;;;;5048681;28;20176;-83
2021/05/16 13:22:03;;;;;;;3.90;3.60;;;;;;;;;;5044005;28;20211;-83
2021/05/16 13:24:44;;;;;;;4.00;3.70;;;;;;;;;;5042540;28;20176;-83
2021/05/16 13:27:12;;;;;;;4.17;3.87;;;;;;;;;;5044619;28;20195;-84
2021/05/16 13:29:41;;;;;;;4.60;4.20;;;;;;;;;;5042824;28;21167;-83
2021/05/16 13:32:09;;;;;;;4.20;3.80;;;;;;;;;;5054650;28;20524;-84
2021/05/16 13:34:34;;;;;;;5.20;4.20;;;;;;;;;;5040152;28;20285;-82
2021/05/16 13:37:00;;;;;;;4.40;4.00;;;;;;;;;;5044916;28;20218;-82
2021/05/16 13:39:27;;;;;;;5.23;4.53;;;;;;;;;;5065300;28;20187;-82
2021/05/16 13:41:54;;;;;;;4.73;4.30;;;;;;;;;;5051267;28;20180;-82
2021/05/16 13:44:20;;;;;;;4.30;3.90;;;;;;;;;;5047745;28;20190;-81
2021/05/16 13:46:45;;;;;;;3.50;3.30;;;;;;;;;;5049311;28;20180;-82
2021/05/16 13:49:11;;;;;;;3.90;3.60;;;;;;;;;;5065341;28;20262;-83
2021/05/16 13:51:39;;;;;;;4.57;3.87;;;;;;;;;;5056105;28;20184;-83
2021/05/16 13:54:05;;;;;;;3.90;3.60;;;;;;;;;;5055580;28;20693;-83
2021/05/16 13:56:30;;;;;;;4.40;4.00;;;;;;;;;;5050502;28;20180;-82
2021/05/16 13:58:56;;;;;;;4.60;4.30;;;;;;;;;;5044879;28;20233;-82
2021/05/16 14:01:21;;;;;;;4.20;3.90;;;;;;;;;;5052862;28;20534;-82
2021/05/16 14:03:46;;;;;;;4.43;3.70;;;;;;;;;;5050981;28;20186;-83
2021/05/16 14:06:12;;;;;;;3.70;3.40;;;;;;;;;;5043333;28;20168;-82
2021/05/16 14:08:37;;;;;;;4.40;4.00;;;;;;;;;;5042772;28;20225;-83
2021/05/16 14:11:02;;;;;;;4.83;4.43;;;;;;;;;;5044399;28;20218;-83
2021/05/16 14:13:28;;;;;;;5.63;3.47;;;;;;;;;;5044845;28;20196;-82
2021/05/16 14:15:53;;;;;;;3.70;3.40;;;;;;;;;;5045735;28;20259;-82
2021/05/16 14:18:18;;;;;;;3.93;3.63;;;;;;;;;;5044883;28;20178;-82
2021/05/16 14:20:44;;;;;;;4.53;4.13;;;;;;;;;;5045882;28;20199;-82
2021/05/16 14:23:09;;;;;;;6.23;4.80;;;;;;;;;;5045126;28;20183;-82
2021/05/16 14:25:34;;;;;;;5.10;4.60;;;;;;;;;;5042006;28;20285;-83
2021/05/16 14:28:00;;;;;;;4.67;4.27;;;;;;;;;;5043294;28;20172;-82
2021/05/16 14:30:26;;;;;;;6.07;5.10;;;;;;;;;;5042836;28;20923;-82
2021/05/16 14:32:52;;;;;;;5.50;5.03;;;;;;;;;;5042890;28;20169;-81
2021/05/16 14:35:18;;;;;;;5.60;5.10;;;;;;;;;;5039664;28;20264;-83
2021/05/16 14:37:43;;;;;;;5.73;5.23;;;;;;;;;;5052337;28;20655;-83
2021/05/16 14:40:09;;;;;;;6.07;5.50;;;;;;;;;;5054803;28;20238;-83
2021/05/16 14:42:34;;;;;;;6.67;5.97;;;;;;;;;;5038572;28;20281;-83
2021/05/16 14:45:00;;;;;;;7.07;6.37;;;;;;;;;;5047345;28;20214;-83
2021/05/16 14:47:25;;;;;;;5.73;5.23;;;;;;;;;;5052749;28;20215;-83
2021/05/16 14:49:50;;;;;;;5.73;4.80;;;;;;;;;;5054792;28;20286;-83
2021/05/16 14:52:17;;;;;;;4.40;4.00;;;;;;;;;;5054753;28;20178;-83
2021/05/16 14:54:43;;;;;;;4.40;4.00;;;;;;;;;;5045316;28;20195;-83
2021/05/16 14:57:08;;;;;;;4.30;4.00;;;;;;;;;;5054245;28;20616;-83
2021/05/16 14:59:35;;;;;;;3.93;3.63;;;;;;;;;;5044154;28;20179;-83
2021/05/16 15:02:00;;;;;;;4.50;4.10;;;;;;;;;;5051743;28;20237;-83
2021/05/16 15:04:26;;;;;;;4.07;3.70;;;;;;;;;;5051757;28;20180;-83
2021/05/16 15:06:51;;;;;;;6.27;3.90;;;;;;;;;;5052413;28;20309;-83
2021/05/16 15:09:16;;;;;;;4.53;4.23;;;;;;;;;;5054432;28;20258;-83
2021/05/16 15:11:42;;;;;;;6.00;4.30;;;;;;;;;;5052248;28;20184;-83
2021/05/16 15:14:07;;;;;;;4.90;4.43;;;;;;;;;;5053957;28;20195;-83
2021/05/16 15:16:33;;;;;;;5.20;4.70;;;;;;;;;;5050535;28;20176;-82
2021/05/16 15:18:59;;;;;;;4.80;4.40;;;;;;;;;;5054357;28;20171;-83
2021/05/16 15:21:24;;;;;;;4.90;4.40;;;;;;;;;;5053976;28;20200;-83
2021/05/16 15:23:50;;;;;;;4.60;4.20;;;;;;;;;;5054303;28;20190;-83
2021/05/16 15:26:15;;;;;;;4.53;4.23;;;;;;;;;;5050441;28;20179;-83
2021/05/16 15:28:41;;;;;;;4.77;4.37;;;;;;;;;;5037261;28;20180;-83
2021/05/16 15:31:07;;;;;;;5.00;4.53;;;;;;;;;;5043498;28;20231;-84
2021/05/16 15:33:33;;;;;;;4.83;4.10;;;;;;;;;;5042729;28;20179;-84
2021/05/16 15:35:59;;;;;;;4.77;4.37;;;;;;;;;;5044745;28;20190;-83
2021/05/16 15:38:26;;;;;;;4.63;4.20;;;;;;;;;;5033913;28;20176;-84
2021/05/16 15:40:51;;;;;;;4.27;3.80;;;;;;;;;;5036065;28;20242;-83
2021/05/16 15:43:17;;;;;;;4.40;4.00;;;;;;;;;;5050428;28;20188;-84
2021/05/16 15:45:42;;;;;;;4.33;4.00;;;;;;;;;;5046488;28;20263;-84
2021/05/16 15:48:07;;;;;;;4.03;3.73;;;;;;;;;;5048739;28;20186;-84
2021/05/16 15:50:33;;;;;;;4.20;3.90;;;;;;;;;;5053885;28;20199;-84
2021/05/16 15:53:04;;;;;;;4.57;4.17;;;;;;;;;;5053303;28;20176;-83
2021/05/16 15:55:30;;;;;;;4.50;4.20;;;;;;;;;;5053756;28;20175;-83
2021/05/16 15:57:55;;;;;;;5.87;4.40;;;;;;;;;;5053579;28;20616;-83
2021/05/16 16:00:20;;;;;;;4.60;4.20;;;;;;;;;;5050034;28;20184;-83